Terminal Aerodrome Forecast
Issued by NWS

Home | Current Version | Previous Version | Text Only | Print | Product List | Glossary On
Versions: 1 2 3 4 5 6 7 8 9 10 11 12 13 14 15 16
000
FTUS42 KMLB 261739
TAFSUA
TAF
KSUA 261739Z 2618/2718 11010G17KT P6SM VCSH SCT020 BKN060 OVC080
     FM270100 13010KT P6SM VCSH SCT025 BKN080 OVC200
     FM270500 13011KT P6SM -SHRA SCT020 OVC070
     FM271400 14020G27KT P6SM -RA SCT020 BKN035=

USA.gov is the U.S. government's official web portal to all federal, state and local government web resources and services.